.
WxDataArchive / Data Records for 2008-02-23
2008-02-22 February 2008 2008-02-24

Data Records for Saturday, 23 February 2008

Time	Temp	Chill	HIndex	Humid	Dewpt	 Wind 	HiWind	WindDir	Rain 	Barom 
-----	----	-----	------	-----	-----	------	------	-------	-----	----- 
00:00	25.0	25.0	25.0	89	22.2	0	0	---	0.00	29.948 
00:05	24.8	24.8	24.8	89	22.0	0	0	---	0.00	29.946 
00:10	24.8	24.8	24.8	88	21.8	0	0	---	0.00	29.947 
00:15	24.7	24.7	24.7	88	21.7	0	0	---	0.00	29.947 
00:20	24.7	24.7	24.7	89	21.9	0	0	---	0.00	29.948 
00:25	24.5	24.5	24.5	89	21.7	0	0	---	0.00	29.949 
00:30	24.7	24.7	24.7	89	21.9	0	0	---	0.00	29.950 
00:35	24.7	24.7	24.7	89	21.9	0	0	---	0.00	29.954 
00:40	24.8	24.8	24.8	89	22.0	0	0	---	0.00	29.955 
00:45	24.8	24.8	24.8	88	21.8	0	0	---	0.00	29.955 
00:50	25.0	25.0	25.0	88	22.0	0	0	---	0.00	29.954 
00:55	25.1	25.1	25.1	88	22.1	0	1	90	0.00	29.957 
01:00	25.1	25.1	25.1	88	22.1	0	0	---	0.00	29.958 
01:05	25.1	25.1	25.1	88	22.1	0	1	90	0.00	29.959 
01:10	25.1	25.1	25.1	88	22.1	0	0	---	0.00	29.961 
01:15	25.1	25.1	25.1	88	22.1	0	1	90	0.00	29.962 
01:20	25.1	25.1	25.1	88	22.1	0	1	112	0.00	29.963 
01:25	25.1	25.1	25.1	88	22.1	0	1	112	0.00	29.964 
01:30	25.1	25.1	25.1	88	22.1	0	1	112	0.00	29.963 
01:35	25.0	25.0	25.0	88	22.0	0	1	112	0.00	29.962 
01:40	25.0	25.0	25.0	88	22.0	0	1	112	0.00	29.960 
01:45	25.0	25.0	25.0	89	22.2	0	0	---	0.00	29.961 
01:50	24.8	24.8	24.8	89	22.0	0	0	---	0.00	29.961 
01:55	24.8	24.8	24.8	89	22.0	0	0	---	0.00	29.961 
02:00	24.8	24.8	24.8	89	22.0	0	0	---	0.00	29.962 
02:05	24.8	24.8	24.8	89	22.0	0	0	---	0.00	29.962 
02:10	24.8	24.8	24.8	89	22.0	0	0	---	0.00	29.962 
02:15	24.8	24.8	24.8	89	22.0	0	0	---	0.00	29.962 
02:20	24.8	24.8	24.8	89	22.0	0	0	---	0.00	29.961 
02:25	24.8	24.8	24.8	90	22.3	0	0	---	0.00	29.961 
02:30	24.8	24.8	24.8	90	22.3	0	0	---	0.00	29.961 
02:35	24.8	24.8	24.8	90	22.3	0	0	---	0.00	29.959 
02:40	24.8	24.8	24.8	90	22.3	0	0	---	0.00	29.960 
02:45	24.8	24.8	24.8	90	22.3	0	1	112	0.00	29.960 
02:50	24.8	24.8	24.8	90	22.3	0	1	112	0.00	29.960 
02:55	24.7	24.7	24.7	89	21.9	0	0	---	0.00	29.960 
03:00	24.5	24.5	24.5	89	21.7	0	0	---	0.00	29.960 
03:05	24.2	24.2	24.2	89	21.4	0	0	---	0.00	29.961 
03:10	23.9	23.9	23.9	89	21.1	0	0	---	0.00	29.961 
03:15	23.5	23.5	23.5	89	20.7	0	0	---	0.00	29.961 
03:20	23.0	23.0	23.0	89	20.3	0	0	---	0.00	29.963 
03:25	22.5	22.5	22.5	88	19.5	0	0	---	0.00	29.963 
03:30	22.1	22.1	22.1	88	19.1	0	0	---	0.00	29.962 
03:35	21.6	21.6	21.6	88	18.6	0	0	---	0.00	29.963 
03:40	21.1	21.1	21.1	88	18.1	0	0	---	0.00	29.964 
03:45	20.6	20.6	20.6	88	17.6	0	0	---	0.00	29.965 
03:50	20.5	20.5	20.5	88	17.5	0	0	---	0.00	29.965 
03:55	20.0	20.0	20.0	88	17.0	0	0	---	0.00	29.965 
04:00	19.7	19.7	19.7	88	16.7	0	0	---	0.00	29.964 
04:05	19.2	19.2	19.2	88	16.2	0	0	---	0.00	29.967 
04:10	19.1	19.1	19.1	88	16.1	0	0	---	0.00	29.967 
04:15	18.9	18.9	18.9	89	16.2	0	0	---	0.00	29.970 
04:20	18.9	18.9	18.9	89	16.2	0	0	---	0.00	29.973 
04:25	18.9	18.9	18.9	89	16.2	0	0	---	0.00	29.976 
04:30	19.2	19.2	19.2	90	16.8	0	0	---	0.00	29.978 
04:35	19.4	19.4	19.4	90	17.0	0	0	---	0.00	29.980 
04:40	19.7	19.7	19.7	90	17.3	0	0	---	0.00	29.980 
04:45	20.0	20.0	20.0	91	17.8	0	0	---	0.00	29.980 
04:50	20.5	20.5	20.5	91	18.3	0	0	---	0.00	29.981 
04:55	20.8	20.8	20.8	91	18.6	0	0	---	0.00	29.982 
05:00	21.1	21.1	21.1	91	18.9	0	0	---	0.00	29.983 
05:05	21.3	21.3	21.3	91	19.1	0	0	---	0.00	29.984 
05:10	21.4	21.4	21.4	92	19.4	0	0	---	0.00	29.986 
05:15	21.6	21.6	21.6	92	19.6	0	0	---	0.00	29.987 
05:20	21.8	21.8	21.8	92	19.8	0	0	---	0.00	29.992 
05:25	21.9	21.9	21.9	92	19.9	0	0	---	0.00	29.995 
05:30	22.1	22.1	22.1	92	20.1	0	0	---	0.00	29.996 
05:35	21.9	21.9	21.9	92	19.9	0	0	---	0.00	29.996 
05:40	21.8	21.8	21.8	92	19.8	0	0	---	0.00	29.996 
05:45	21.4	21.4	21.4	91	19.2	0	0	---	0.00	29.998 
05:50	21.1	21.1	21.1	91	18.9	0	0	---	0.00	29.999 
05:55	20.6	20.6	20.6	91	18.4	0	1	112	0.00	30.002 
06:00	20.3	20.3	20.3	91	18.1	0	0	---	0.00	30.008 
06:05	19.9	19.9	19.9	90	17.5	0	0	---	0.00	30.012 
06:10	19.4	19.4	19.4	90	17.0	0	0	---	0.00	30.014 
06:15	18.8	18.8	18.8	90	16.4	0	0	---	0.00	30.014 
06:20	18.3	18.3	18.3	90	15.9	0	0	---	0.00	30.017 
06:25	17.8	17.8	17.8	89	15.1	0	0	---	0.00	30.017 
06:30	17.5	17.5	17.5	89	14.8	0	0	---	0.00	30.020 
06:35	17.0	17.0	17.0	89	14.3	0	0	---	0.00	30.020 
06:40	16.7	16.7	16.7	89	14.0	0	0	---	0.00	30.020 
06:45	16.2	16.2	16.2	89	13.5	0	0	---	0.00	30.022 
06:50	15.9	15.9	15.9	88	13.0	0	0	---	0.00	30.022 
06:55	15.6	15.6	15.6	88	12.7	0	0	---	0.00	30.026 
07:00	15.4	15.4	15.4	88	12.5	0	0	---	0.00	30.029 
07:05	15.2	15.2	15.2	88	12.3	0	0	---	0.00	30.031 
07:10	15.1	15.1	15.1	88	12.2	0	0	---	0.00	30.033 
07:15	14.8	14.8	14.8	88	11.9	0	0	---	0.00	30.034 
07:20	14.6	14.6	14.6	88	11.7	0	0	---	0.00	30.035 
07:25	14.6	14.6	14.6	88	11.7	0	0	---	0.00	30.036 
07:30	14.3	14.3	14.3	88	11.4	0	0	---	0.00	30.042 
07:35	14.1	14.1	14.1	88	11.2	0	0	---	0.00	30.047 
07:40	14.1	14.1	14.1	88	11.2	0	0	---	0.00	30.051 
07:45	14.3	14.3	14.3	88	11.4	0	0	---	0.00	30.053 
07:50	14.3	14.3	14.3	88	11.4	0	0	---	0.00	30.053 
07:55	14.3	14.3	14.3	88	11.4	0	0	---	0.00	30.055 
08:00	14.4	14.4	14.4	89	11.8	0	0	---	0.00	30.062 
08:05	14.6	14.6	14.6	89	12.0	0	0	---	0.00	30.066 
08:10	15.1	15.1	15.1	89	12.5	0	0	---	0.00	30.067 
08:15	15.7	15.7	15.7	90	13.3	0	0	---	0.00	30.066 
08:20	16.2	16.2	16.2	90	13.8	0	0	---	0.00	30.068 
08:25	16.9	16.9	16.9	90	14.5	0	0	---	0.00	30.069 
08:30	17.5	17.5	17.5	90	15.1	0	0	---	0.00	30.069 
08:35	18.1	18.1	18.1	90	15.7	0	0	---	0.00	30.070 
08:40	18.6	18.6	18.6	89	15.9	0	0	---	0.00	30.071 
08:45	19.1	19.1	19.1	88	16.1	0	1	112	0.00	30.072 
08:50	19.4	19.4	19.4	87	16.2	0	1	112	0.00	30.074 
08:55	19.9	19.9	19.9	85	16.1	0	1	112	0.00	30.075 
09:00	20.2	20.2	20.2	84	16.2	0	1	112	0.00	30.078 
09:05	20.5	20.5	20.5	81	15.6	0	1	112	0.00	30.079 
09:10	21.0	21.0	21.0	79	15.5	0	5	45	0.00	30.082 
09:15	21.4	21.4	21.4	78	15.6	0	2	270	0.00	30.086 
09:20	21.9	21.9	21.9	77	15.8	0	2	270	0.00	30.090 
09:25	22.4	22.4	22.4	75	15.7	0	2	270	0.00	30.092 
09:30	22.9	22.9	22.9	73	15.6	0	2	270	0.00	30.091 
09:35	23.3	23.3	23.3	72	15.6	0	2	270	0.00	30.092 
09:40	23.8	23.8	23.8	70	15.5	0	1	270	0.00	30.093 
09:45	24.2	24.2	24.2	69	15.5	0	2	270	0.00	30.093 
09:50	24.7	24.7	24.7	69	16.0	0	2	270	0.00	30.091 
09:55	25.0	25.0	25.0	67	15.6	1	2	270	0.00	30.093 
10:00	25.4	25.4	25.4	67	16.0	0	1	270	0.01	30.093 
10:05	26.1	26.1	26.1	65	16.0	0	1	270	0.00	30.094 
10:10	26.7	26.7	26.7	63	15.8	0	1	270	0.00	30.091 
10:15	26.9	26.9	26.9	61	15.3	0	2	270	0.00	30.090 
10:20	27.2	27.2	27.2	60	15.2	0	2	270	0.00	30.090 
10:25	27.9	27.9	27.9	59	15.5	0	1	270	0.00	30.089 
10:30	27.9	27.9	27.9	58	15.1	1	2	270	0.01	30.088 
10:35	27.9	27.9	27.9	59	15.5	1	3	45	0.00	30.089 
10:40	28.1	28.1	28.1	58	15.3	0	2	45	0.00	30.089 
10:45	28.4	28.4	28.4	58	15.5	0	2	45	0.00	30.089 
10:50	28.8	28.8	28.8	57	15.5	1	3	90	0.00	30.088 
10:55	29.3	29.3	29.3	58	16.4	1	3	90	0.00	30.089 
11:00	29.4	29.4	29.4	57	16.1	0	2	68	0.00	30.088 
11:05	29.3	29.3	29.3	57	16.0	0	2	68	0.01	30.089 
11:10	29.4	29.4	29.4	57	16.1	1	4	90	0.00	30.090 
11:15	29.5	29.5	29.5	57	16.2	1	3	90	0.00	30.089 
11:20	29.4	29.4	29.4	58	16.5	0	2	68	0.00	30.088 
11:25	29.4	29.4	29.4	58	16.5	1	4	90	0.00	30.088 
11:30	29.4	29.4	29.4	58	16.5	1	2	90	0.00	30.090 
11:35	29.4	29.4	29.4	58	16.5	1	4	90	0.00	30.094 
11:40	29.5	29.5	29.5	58	16.6	1	3	90	0.00	30.098 
11:45	29.7	29.7	29.7	57	16.4	1	3	90	0.00	30.099 
11:50	30.0	30.0	30.0	56	16.2	1	4	90	0.01	30.100 
11:55	29.8	29.8	29.8	58	16.8	1	4	90	0.00	30.101 
12:00	29.8	29.8	29.8	57	16.4	1	5	90	0.00	30.101 
12:05	29.8	29.8	29.8	58	16.8	1	4	90	0.00	30.101 
12:10	29.7	29.7	29.7	57	16.4	2	5	112	0.00	30.100 
12:15	29.5	29.5	29.5	57	16.2	0	2	68	0.00	30.101 
12:20	29.8	29.8	29.8	58	16.8	0	1	68	0.00	30.101 
12:25	30.4	30.4	30.4	56	16.6	1	2	68	0.00	30.101 
12:30	30.6	30.6	30.6	55	16.4	0	3	68	0.00	30.098 
12:35	30.9	30.9	30.9	55	16.7	0	2	68	0.00	30.098 
12:40	31.2	31.2	31.2	55	16.9	1	2	68	0.00	30.098 
12:45	31.3	31.3	31.3	54	16.6	0	2	270	0.00	30.096 
12:50	31.8	31.8	31.8	57	18.3	0	2	270	0.00	30.095 
12:55	32.2	32.2	32.2	55	17.9	0	1	270	0.01	30.091 
13:00	32.2	32.2	32.2	57	18.7	1	3	90	0.00	30.091 
13:05	31.9	31.9	31.9	53	16.7	1	3	90	0.00	30.091 
13:10	31.8	31.8	31.8	54	17.1	1	2	90	0.00	30.088 
13:15	32.1	32.1	32.1	52	16.5	0	2	90	0.00	30.087 
13:20	32.2	32.2	32.2	52	16.6	0	1	68	0.00	30.085 
13:25	32.1	32.1	32.1	51	16.0	0	1	68	0.00	30.085 
13:30	32.1	32.1	32.1	50	15.6	0	2	68	0.00	30.086 
13:35	32.2	32.2	32.2	52	16.6	0	2	68	0.00	30.085 
13:40	32.7	32.7	32.7	51	16.6	0	2	68	0.00	30.083 
13:45	32.7	32.7	32.7	51	16.6	1	5	68	0.00	30.081 
13:50	32.7	32.7	32.7	54	17.9	0	2	248	0.00	30.078 
13:55	33.1	33.1	33.1	52	17.4	1	2	292	0.00	30.075 
14:00	33.2	33.2	33.2	50	16.6	1	4	225	0.00	30.074 
14:05	33.1	33.1	33.1	49	16.0	1	5	0	0.00	30.076 
14:10	33.1	33.1	33.1	51	17.0	1	3	292	0.00	30.072 
14:15	33.1	33.1	33.1	49	16.0	0	2	292	0.00	30.071 
14:20	33.1	33.1	33.1	50	16.5	0	1	292	0.00	30.069 
14:25	33.2	33.2	33.2	51	17.1	0	2	292	0.00	30.068 
14:30	33.2	33.2	33.2	47	15.2	1	3	68	0.00	30.068 
14:35	33.4	33.4	33.4	50	16.8	0	1	68	0.00	30.067 
14:40	33.7	33.7	33.7	47	15.6	1	4	270	0.00	30.067 
14:45	34.0	34.0	34.0	48	16.4	0	2	158	0.00	30.066 
14:50	34.1	34.1	34.1	50	17.4	0	2	0	0.00	30.066 
14:55	34.1	34.1	34.1	50	17.4	0	2	0	0.00	30.067 
15:00	34.1	34.1	34.1	48	16.5	0	2	22	0.00	30.067 
15:05	34.0	34.0	34.0	47	15.9	1	3	22	0.00	30.071 
15:10	34.0	34.0	34.0	47	15.9	1	4	22	0.00	30.074 
15:15	33.8	33.8	33.8	47	15.7	1	4	112	0.00	30.072 
15:20	34.1	34.1	34.1	47	16.0	0	2	112	0.00	30.072 
15:25	34.7	34.7	34.7	48	17.0	0	2	135	0.00	30.073 
15:30	35.0	35.0	35.0	44	15.3	0	1	0	0.00	30.077 
15:35	34.9	34.9	34.9	41	13.6	1	3	68	0.00	30.074 
15:40	34.7	34.7	34.7	45	15.6	0	2	68	0.00	30.076 
15:45	35.3	35.3	35.3	44	15.6	0	2	68	0.00	30.080 
15:50	35.8	35.8	35.8	43	15.5	0	2	270	0.00	30.079 
15:55	35.9	35.9	35.9	43	15.6	0	2	270	0.00	30.080 
16:00	35.9	35.9	35.9	42	15.1	0	1	270	0.00	30.081 
16:05	35.8	35.8	35.8	41	14.4	0	1	270	0.00	30.081 
16:10	35.5	35.5	35.5	43	15.2	0	2	270	0.00	30.084 
16:15	35.3	35.3	35.3	44	15.6	0	2	270	0.00	30.084 
16:20	35.5	35.5	35.5	45	16.3	0	3	270	0.00	30.084 
16:25	35.6	35.6	35.6	43	15.3	1	3	270	0.00	30.085 
16:30	35.5	35.5	35.5	43	15.2	0	2	270	0.00	30.085 
16:35	35.2	35.2	35.2	46	16.5	0	2	315	0.00	30.085 
16:40	35.2	35.2	35.2	47	17.0	1	2	315	0.00	30.085 
16:45	34.7	34.7	34.7	51	18.4	1	5	112	0.00	30.086 
16:50	34.3	34.3	34.3	53	19.0	1	3	90	0.00	30.090 
16:55	33.8	33.8	33.8	53	18.5	1	3	90	0.00	30.093 
17:00	33.5	33.5	33.5	54	18.7	1	3	112	0.00	30.098 
17:05	33.2	33.2	33.2	54	18.4	1	3	112	0.00	30.102 
17:10	33.1	33.1	33.1	55	18.7	1	5	112	0.00	30.103 
17:15	32.8	32.8	32.8	53	17.6	1	2	90	0.00	30.105 
17:20	32.7	32.7	32.7	51	16.6	1	4	112	0.00	30.107 
17:25	32.4	32.4	32.4	52	16.8	2	4	90	0.00	30.112 
17:30	32.2	32.2	32.2	52	16.6	1	3	90	0.00	30.115 
17:35	32.1	32.1	32.1	52	16.5	1	4	90	0.00	30.118 
17:40	32.1	32.1	32.1	54	17.4	0	2	90	0.00	30.119 
17:45	31.9	31.9	31.9	55	17.6	0	2	90	0.00	30.120 
17:50	31.8	31.8	31.8	55	17.5	0	2	90	0.00	30.120 
17:55	31.6	31.6	31.6	55	17.3	0	1	90	0.00	30.121 
18:00	31.3	31.3	31.3	56	17.4	0	1	90	0.00	30.123 
18:05	31.0	31.0	31.0	57	17.6	0	0	---	0.00	30.132 
18:10	30.9	30.9	30.9	57	17.5	0	1	90	0.00	30.138 
18:15	30.6	30.6	30.6	58	17.6	0	1	90	0.00	30.140 
18:20	30.4	30.4	30.4	59	17.8	0	1	90	0.00	30.143 
18:25	30.3	30.3	30.3	60	18.1	0	2	90	0.00	30.143 
18:30	30.4	30.4	30.4	61	18.6	0	1	90	0.00	30.144 
18:35	30.6	30.6	30.6	62	19.2	0	1	90	0.00	30.144 
18:40	30.4	30.4	30.4	62	19.0	0	0	---	0.00	30.150 
18:45	30.1	30.1	30.1	62	18.7	0	2	90	0.00	30.154 
18:50	30.0	30.0	30.0	63	19.0	1	3	248	0.00	30.158 
18:55	30.0	30.0	30.0	64	19.3	0	2	248	0.00	30.160 
19:00	29.8	29.8	29.8	65	19.5	1	3	248	0.00	30.162 
19:05	29.7	29.7	29.7	65	19.4	0	2	248	0.00	30.167 
19:10	29.5	29.5	29.5	66	19.6	0	1	248	0.00	30.170 
19:15	29.4	29.4	29.4	66	19.5	0	1	248	0.00	30.174 
19:20	29.3	29.3	29.3	67	19.7	1	2	248	0.00	30.174 
19:25	29.1	29.1	29.1	67	19.5	1	3	248	0.00	30.175 
19:30	29.1	29.1	29.1	67	19.5	1	3	248	0.00	30.177 
19:35	29.1	29.1	29.1	68	19.9	1	3	248	0.00	30.177 
19:40	29.0	29.0	29.0	68	19.8	0	2	248	0.00	30.177 
19:45	28.8	28.8	28.8	69	19.9	0	3	248	0.00	30.179 
19:50	28.5	28.5	28.5	69	19.6	0	1	248	0.00	30.179 
19:55	28.4	28.4	28.4	70	19.9	0	1	248	0.00	30.182 
20:00	28.2	28.2	28.2	70	19.7	0	1	248	0.00	30.184 
20:05	27.9	27.9	27.9	71	19.7	0	0	---	0.00	30.180 
20:10	27.6	27.6	27.6	72	19.8	0	0	---	0.00	30.183 
20:15	27.3	27.3	27.3	73	19.8	0	0	---	0.00	30.185 
20:20	27.2	27.2	27.2	73	19.7	0	1	248	0.00	30.188 
20:25	26.9	26.9	26.9	74	19.7	0	0	---	0.00	30.188 
20:30	26.7	26.7	26.7	74	19.5	0	0	---	0.00	30.189 
20:35	26.6	26.6	26.6	75	19.8	0	0	---	0.00	30.190 
20:40	26.6	26.6	26.6	75	19.8	0	0	---	0.00	30.190 
20:45	26.6	26.6	26.6	75	19.8	0	1	248	0.00	30.190 
20:50	26.4	26.4	26.4	75	19.6	0	0	---	0.00	30.191 
20:55	26.3	26.3	26.3	75	19.5	0	0	---	0.00	30.191 
21:00	26.0	26.0	26.0	75	19.2	0	0	---	0.00	30.193 
21:05	25.7	25.7	25.7	75	18.9	0	0	---	0.00	30.190 
21:10	25.4	25.4	25.4	75	18.6	0	0	---	0.00	30.187 
21:15	25.0	25.0	25.0	76	18.5	0	0	---	0.00	30.185 
21:20	24.5	24.5	24.5	76	18.0	0	0	---	0.00	30.185 
21:25	24.2	24.2	24.2	77	18.1	0	0	---	0.00	30.187 
21:30	24.1	24.1	24.1	78	18.3	0	0	---	0.00	30.188 
21:35	23.9	23.9	23.9	79	18.4	0	0	---	0.00	30.188 
21:40	23.6	23.6	23.6	79	18.1	0	0	---	0.00	30.191 
21:45	23.3	23.3	23.3	79	17.8	0	0	---	0.00	30.191 
21:50	23.0	23.0	23.0	79	17.5	0	0	---	0.00	30.194 
21:55	22.5	22.5	22.5	80	17.3	0	0	---	0.00	30.193 
22:00	22.4	22.4	22.4	81	17.5	0	0	---	0.00	30.200 
22:05	22.4	22.4	22.4	82	17.8	0	0	---	0.00	30.197 
22:10	22.2	22.2	22.2	83	17.8	0	0	---	0.00	30.198 
22:15	21.9	21.9	21.9	83	17.5	0	0	---	0.00	30.199 
22:20	21.6	21.6	21.6	82	17.0	0	0	---	0.00	30.200 
22:25	21.3	21.3	21.3	83	17.0	0	0	---	0.00	30.199 
22:30	21.1	21.1	21.1	84	17.0	0	0	---	0.00	30.199 
22:35	21.0	21.0	21.0	84	16.9	0	0	---	0.00	30.199 
22:40	21.0	21.0	21.0	85	17.2	0	0	---	0.00	30.200 
22:45	21.0	21.0	21.0	85	17.2	0	0	---	0.00	30.199 
22:50	20.8	20.8	20.8	86	17.3	0	0	---	0.00	30.198 
22:55	20.5	20.5	20.5	86	17.0	0	0	---	0.00	30.199 
23:00	20.3	20.3	20.3	86	16.8	0	0	---	0.00	30.199 
23:05	19.9	19.9	19.9	86	16.4	0	0	---	0.00	30.196 
23:10	19.7	19.7	19.7	86	16.2	0	0	---	0.00	30.194 
23:15	19.5	19.5	19.5	86	16.0	0	0	---	0.00	30.191 
23:20	19.5	19.5	19.5	87	16.3	0	0	---	0.00	30.189 
23:25	19.5	19.5	19.5	87	16.3	0	0	---	0.00	30.187 
23:30	19.2	19.2	19.2	87	16.0	0	0	---	0.00	30.188 
23:35	19.2	19.2	19.2	88	16.2	0	0	---	0.00	30.188 
23:40	19.1	19.1	19.1	88	16.1	0	0	---	0.00	30.188 
23:45	18.9	18.9	18.9	88	15.9	0	0	---	0.00	30.187 
23:50	18.6	18.6	18.6	88	15.6	0	0	---	0.00	30.186 
23:55	18.4	18.4	18.4	88	15.5	0	0	---	0.00	30.184 

CoCoRaHS
IN-AL-39
A2 Web Hosting
Creative Commons License
GoDaddy
Look for:

loaded 2017-10-19 19:53:23 • last modified 2010-11-18 10:43:29
Privacy PolicyDisclaimer
• wx.awcolley.com is powered by PmWiki v.2002016 •
• all content (unless otherwise noted) © 2017 A W Colley